Dry Creek, Kentucky
Current Conditions -  °F | °C
As of 10:35 PM on Friday 19 Dec 2014 (Local Time) from KPBX Reporting Station
Clear Clear  
Wind Chill: 19°   Ceiling: Unl
Heat Index: 27°   Visibility: 10mi
Dew Point: 22°   Wind: 7mph
Humidity: 83%   Direction: 40°NE
Pressure: 30.22"   Gusts: NA
Location:  37.351°N, 82.7744°W
Report Text: KPBX 200335Z AUTO 04006KT 10SM CLR M03/M05 A3022 RMK AO2 T10301055
Loading
Personal Weather Stations






























Interactive Weather Map New forecast layout! Learn more

10-Day Weather Forecast

Advertisements
Track Severe Weather on mobile